Time;durP1;ratioP1;P1;durP2;ratioP2;P2;SDS_P1;SDS_P2;PMS_P1;PMS_P2;Temp;Humidity;BMP_temperature;BMP_pressure;BME280_temperature;BME280_humidity;BME280_pressure;Samples;Min_cycle;Max_cycle;Signal;HPM_P1;HPM_P2
2022/10/31 00:00:18;;;;;;;;;9.25;7.00;;;;;;;;5085049;27;62188;-77
2022/10/31 00:02:43;;;;;;;;;8.25;8.00;;;;;;;;5084209;28;62941;-78
2022/10/31 00:05:09;;;;;;;;;8.00;7.00;;;;;;;;5083734;27;62097;-78
2022/10/31 00:07:34;;;;;;;;;9.50;7.00;;;;;;;;5085257;27;61896;-77
2022/10/31 00:09:59;;;;;;;;;10.75;7.00;;;;;;;;5083760;28;62108;-77
2022/10/31 00:12:25;;;;;;;;;7.00;7.00;;;;;;;;5082634;27;63670;-77
2022/10/31 00:14:51;;;;;;;;;6.75;6.00;;;;;;;;5084421;28;61853;-78
2022/10/31 00:17:16;;;;;;;;;8.75;8.50;;;;;;;;5085133;28;62007;-77
2022/10/31 00:19:41;;;;;;;;;11.25;8.00;;;;;;;;5084474;28;62139;-78
2022/10/31 00:22:07;;;;;;;;;9.50;6.00;;;;;;;;5084419;28;62020;-77
2022/10/31 00:24:32;;;;;;;;;6.00;6.00;;;;;;;;5083358;27;61852;-77
2022/10/31 00:26:57;;;;;;;;;9.50;7.00;;;;;;;;5084495;28;62040;-77
2022/10/31 00:29:22;;;;;;;;;6.75;5.00;;;;;;;;5083197;27;62263;-77
2022/10/31 00:31:48;;;;;;;;;8.00;6.25;;;;;;;;5084052;27;61713;-77
2022/10/31 00:34:13;;;;;;;;;7.25;5.75;;;;;;;;5083162;27;61817;-77
2022/10/31 00:36:38;;;;;;;;;10.50;6.25;;;;;;;;5084358;27;61945;-77
2022/10/31 00:39:03;;;;;;;;;11.25;9.00;;;;;;;;5083477;27;61838;-77
2022/10/31 00:41:29;;;;;;;;;8.00;8.00;;;;;;;;5082848;27;61745;-77
2022/10/31 00:43:54;;;;;;;;;9.25;7.50;;;;;;;;5083863;27;61990;-77
2022/10/31 00:46:20;;;;;;;;;10.25;9.25;;;;;;;;5084464;28;61765;-78
2022/10/31 00:48:45;;;;;;;;;8.75;8.75;;;;;;;;5064354;27;61810;-78
2022/10/31 00:51:10;;;;;;;;;11.25;8.75;;;;;;;;5062256;28;61822;-77
2022/10/31 00:53:36;;;;;;;;;9.50;8.00;;;;;;;;5062802;28;61758;-77
2022/10/31 00:56:01;;;;;;;;;13.00;7.25;;;;;;;;5062476;28;61869;-77
2022/10/31 00:58:26;;;;;;;;;9.75;8.50;;;;;;;;5083468;27;61731;-77
2022/10/31 01:00:54;;;;;;;;;8.75;8.50;;;;;;;;5065335;28;63070;-78
2022/10/31 01:03:24;;;;;;;;;10.75;6.25;;;;;;;;5084431;27;61861;-77
2022/10/31 01:05:56;;;;;;;;;9.25;8.25;;;;;;;;5083893;27;61872;-78
2022/10/31 01:08:22;;;;;;;;;10.25;7.25;;;;;;;;5084462;28;61909;-77
2022/10/31 01:10:57;;;;;;;;;13.00;10.50;;;;;;;;5064684;28;65265;-78
2022/10/31 01:13:22;;;;;;;;;8.75;8.25;;;;;;;;5083620;27;61688;-77
2022/10/31 01:15:53;;;;;;;;;14.00;11.00;;;;;;;;5083750;28;61623;-77
2022/10/31 01:18:18;;;;;;;;;8.75;8.75;;;;;;;;5083908;27;61858;-78
2022/10/31 01:20:43;;;;;;;;;8.00;8.00;;;;;;;;5083485;28;62823;-77
2022/10/31 01:23:08;;;;;;;;;8.25;7.00;;;;;;;;5084014;28;61843;-77
2022/10/31 01:25:34;;;;;;;;;8.50;8.25;;;;;;;;5083680;27;61748;-77
2022/10/31 01:27:59;;;;;;;;;9.25;8.00;;;;;;;;5065486;28;61892;-77
2022/10/31 01:30:24;;;;;;;;;11.75;8.00;;;;;;;;5083086;27;62800;-77
2022/10/31 01:32:49;;;;;;;;;8.75;8.75;;;;;;;;5083818;28;62179;-77
2022/10/31 01:35:15;;;;;;;;;13.00;10.00;;;;;;;;5083556;27;61695;-78
2022/10/31 01:37:40;;;;;;;;;11.75;8.75;;;;;;;;5065644;28;61716;-77
2022/10/31 01:40:06;;;;;;;;;7.25;7.25;;;;;;;;5064900;28;63727;-77
2022/10/31 01:42:31;;;;;;;;;13.00;8.00;;;;;;;;5082692;28;61886;-77
2022/10/31 01:44:58;;;;;;;;;8.50;8.00;;;;;;;;5083409;27;61704;-78
2022/10/31 01:47:35;;;;;;;;;10.00;8.00;;;;;;;;5083767;27;61993;-77
2022/10/31 01:50:02;;;;;;;;;11.25;9.00;;;;;;;;5082396;28;63039;-77
2022/10/31 01:52:32;;;;;;;;;7.25;6.00;;;;;;;;5082370;28;61743;-77
2022/10/31 01:55:02;;;;;;;;;9.50;6.00;;;;;;;;5064549;28;61799;-78
2022/10/31 01:57:29;;;;;;;;;12.00;9.00;;;;;;;;5064601;28;62157;-77
2022/10/31 01:59:56;;;;;;;;;12.00;8.25;;;;;;;;5082754;27;61849;-77
2022/10/31 02:02:22;;;;;;;;;12.00;9.00;;;;;;;;5083076;28;61915;-77
2022/10/31 02:04:48;;;;;;;;;12.00;11.00;;;;;;;;5065237;28;62161;-77
2022/10/31 02:07:16;;;;;;;;;11.25;8.00;;;;;;;;5083298;27;61646;-79
2022/10/31 02:09:42;;;;;;;;;8.75;8.75;;;;;;;;5081956;28;61955;-77
2022/10/31 02:12:09;;;;;;;;;10.50;7.00;;;;;;;;5064691;28;61622;-77
2022/10/31 02:14:35;;;;;;;;;10.25;8.75;;;;;;;;5065011;28;61713;-78
2022/10/31 02:17:00;;;;;;;;;11.75;11.00;;;;;;;;5083069;28;61986;-77
2022/10/31 02:19:50;;;;;;;;;7.00;7.00;;;;;;;;5082237;28;61900;-77
2022/10/31 02:22:15;;;;;;;;;12.25;12.25;;;;;;;;5082945;28;61723;-78
2022/10/31 02:24:44;;;;;;;;;12.00;11.50;;;;;;;;5064123;28;61773;-77
2022/10/31 02:27:12;;;;;;;;;15.25;9.00;;;;;;;;5082823;27;62005;-77
2022/10/31 02:29:37;;;;;;;;;15.25;10.75;;;;;;;;5082493;28;63186;-77
2022/10/31 02:32:12;;;;;;;;;8.75;7.75;;;;;;;;5082803;28;61719;-77
2022/10/31 02:34:37;;;;;;;;;16.25;12.00;;;;;;;;5082919;27;61800;-78
2022/10/31 02:37:14;;;;;;;;;11.75;8.50;;;;;;;;5082900;27;61898;-77
2022/10/31 02:39:48;;;;;;;;;14.00;12.25;;;;;;;;5081773;28;62563;-77
2022/10/31 02:42:20;;;;;;;;;17.75;12.75;;;;;;;;5082277;28;62131;-77
2022/10/31 02:44:55;;;;;;;;;20.75;13.50;;;;;;;;5064337;28;61738;-77
2022/10/31 02:47:26;;;;;;;;;16.00;14.50;;;;;;;;5089087;27;61802;-78
2022/10/31 02:50:00;;;;;;;;;19.50;15.00;;;;;;;;5083481;27;63624;-77
2022/10/31 02:52:27;;;;;;;;;21.00;15.50;;;;;;;;5084550;27;61880;-77
2022/10/31 02:54:53;;;;;;;;;15.00;14.00;;;;;;;;5102955;27;61961;-77
2022/10/31 02:57:24;;;;;;;;;15.75;14.00;;;;;;;;5102274;27;62037;-77
2022/10/31 02:59:53;;;;;;;;;18.50;14.75;;;;;;;;5102411;27;61813;-77
2022/10/31 03:02:18;;;;;;;;;18.75;15.25;;;;;;;;5084342;27;61871;-77
2022/10/31 03:04:49;;;;;;;;;16.25;13.75;;;;;;;;5104874;27;61702;-77
2022/10/31 03:07:23;;;;;;;;;15.50;15.50;;;;;;;;5105871;27;61893;-78
2022/10/31 03:09:59;;;;;;;;;16.00;14.50;;;;;;;;5087371;27;63158;-77
2022/10/31 03:12:39;;;;;;;;;16.00;16.00;;;;;;;;5106167;27;62057;-77
2022/10/31 03:15:11;;;;;;;;;12.50;10.75;;;;;;;;5087697;27;61831;-77
2022/10/31 03:17:38;;;;;;;;;18.00;15.00;;;;;;;;5087993;27;61804;-77
2022/10/31 03:20:04;;;;;;;;;19.75;17.50;;;;;;;;5086786;27;63790;-77
2022/10/31 03:22:31;;;;;;;;;18.25;14.25;;;;;;;;5087371;27;61902;-77
2022/10/31 03:24:57;;;;;;;;;16.00;13.50;;;;;;;;5106324;27;61823;-78
2022/10/31 03:27:27;;;;;;;;;16.25;15.00;;;;;;;;5087688;27;62119;-77
2022/10/31 03:29:54;;;;;;;;;15.00;15.00;;;;;;;;5105555;27;61921;-77
2022/10/31 03:32:22;;;;;;;;;17.25;16.25;;;;;;;;5106222;27;62045;-77
2022/10/31 03:34:48;;;;;;;;;19.50;15.75;;;;;;;;5106010;27;61810;-77
2022/10/31 03:37:15;;;;;;;;;23.00;17.00;;;;;;;;5105633;27;61714;-77
2022/10/31 03:39:43;;;;;;;;;25.00;18.00;;;;;;;;5086803;27;63456;-77
2022/10/31 03:42:13;;;;;;;;;27.50;18.25;;;;;;;;5105603;27;61927;-77
2022/10/31 03:44:40;;;;;;;;;22.75;18.75;;;;;;;;5106190;27;61877;-77
2022/10/31 03:47:06;;;;;;;;;22.25;18.75;;;;;;;;5105780;27;61901;-77
2022/10/31 03:49:32;;;;;;;;;23.75;19.75;;;;;;;;5086290;27;64256;-77
2022/10/31 03:52:22;;;;;;;;;23.00;17.75;;;;;;;;5105394;27;61711;-78
2022/10/31 03:54:53;;;;;;;;;22.25;18.75;;;;;;;;5105962;27;61832;-77
2022/10/31 03:57:27;;;;;;;;;23.75;21.50;;;;;;;;5086786;27;62479;-77
2022/10/31 04:00:00;;;;;;;;;22.75;21.75;;;;;;;;5086488;27;62885;-78
2022/10/31 04:02:28;;;;;;;;;27.25;21.50;;;;;;;;5105528;27;61896;-77
2022/10/31 04:04:53;;;;;;;;;24.00;20.75;;;;;;;;5105617;27;61852;-77
2022/10/31 04:07:21;;;;;;;;;26.75;21.75;;;;;;;;5086674;27;61922;-77
2022/10/31 04:09:47;;;;;;;;;28.50;21.00;;;;;;;;5086315;27;64624;-78
2022/10/31 04:12:14;;;;;;;;;26.50;21.00;;;;;;;;5086986;27;62036;-77
2022/10/31 04:14:41;;;;;;;;;23.75;21.00;;;;;;;;5105657;27;61763;-77
2022/10/31 04:17:09;;;;;;;;;21.25;19.50;;;;;;;;5104330;27;61831;-77
2022/10/31 04:19:34;;;;;;;;;21.25;18.00;;;;;;;;5104145;27;62251;-77
2022/10/31 04:21:59;;;;;;;;;24.50;21.00;;;;;;;;5086375;27;61891;-77
2022/10/31 04:24:25;;;;;;;;;19.50;19.50;;;;;;;;5105163;27;61624;-77
2022/10/31 04:26:50;;;;;;;;;21.75;20.00;;;;;;;;5105081;27;61689;-78
2022/10/31 04:29:15;;;;;;;;;23.50;21.00;;;;;;;;5104582;27;61877;-77
2022/10/31 04:31:40;;;;;;;;;21.25;17.50;;;;;;;;5105091;27;61946;-78
2022/10/31 04:34:07;;;;;;;;;23.75;21.50;;;;;;;;5086658;27;61967;-77
2022/10/31 04:36:32;;;;;;;;;24.25;21.25;;;;;;;;5104711;27;61702;-77
2022/10/31 04:38:57;;;;;;;;;31.00;21.00;;;;;;;;5085893;27;64415;-77
2022/10/31 04:41:23;;;;;;;;;23.00;21.00;;;;;;;;5086113;27;61721;-77
2022/10/31 04:43:48;;;;;;;;;24.75;22.50;;;;;;;;5104872;27;61676;-77
2022/10/31 04:46:13;;;;;;;;;22.00;19.50;;;;;;;;5086602;27;61814;-77
2022/10/31 04:48:39;;;;;;;;;27.00;22.25;;;;;;;;5084703;27;63461;-77
2022/10/31 04:51:04;;;;;;;;;24.25;20.25;;;;;;;;5085820;27;61788;-77
2022/10/31 04:53:29;;;;;;;;;21.50;20.50;;;;;;;;5104756;27;62071;-77
2022/10/31 04:55:54;;;;;;;;;19.75;18.25;;;;;;;;5104599;27;61858;-77
2022/10/31 04:58:20;;;;;;;;;29.50;23.25;;;;;;;;5104049;27;61857;-77
2022/10/31 05:00:45;;;;;;;;;18.75;11.25;;;;;;;;5086218;27;61934;-77
2022/10/31 05:03:10;;;;;;;;;31.50;23.75;;;;;;;;5104550;27;61943;-77
2022/10/31 05:05:35;;;;;;;;;22.50;19.75;;;;;;;;5085639;27;62005;-77
2022/10/31 05:08:01;;;;;;;;;22.75;19.00;;;;;;;;5085650;27;63657;-77
2022/10/31 05:10:27;;;;;;;;;20.00;18.00;;;;;;;;5085790;27;61988;-77
2022/10/31 05:12:54;;;;;;;;;27.00;20.25;;;;;;;;5104647;27;61871;-77
2022/10/31 05:15:21;;;;;;;;;22.75;19.25;;;;;;;;5104575;27;61773;-77
2022/10/31 05:17:46;;;;;;;;;24.00;18.25;;;;;;;;5084977;27;63720;-77
2022/10/31 05:20:12;;;;;;;;;22.75;18.00;;;;;;;;5104127;27;61857;-77
2022/10/31 05:22:42;;;;;;;;;25.50;21.75;;;;;;;;5104139;27;61788;-77
2022/10/31 05:25:07;;;;;;;;;23.50;21.50;;;;;;;;5086054;27;61776;-77
2022/10/31 05:27:33;;;;;;;;;24.00;22.25;;;;;;;;5084769;27;63326;-77
2022/10/31 05:29:58;;;;;;;;;23.75;19.50;;;;;;;;5104158;27;61843;-78
2022/10/31 05:32:23;;;;;;;;;27.00;21.75;;;;;;;;5085237;27;61966;-78
2022/10/31 05:34:48;;;;;;;;;25.50;20.75;;;;;;;;5086012;27;62240;-77
2022/10/31 05:37:14;;;;;;;;;21.00;19.25;;;;;;;;5085023;27;63390;-77
2022/10/31 05:39:39;;;;;;;;;21.75;19.00;;;;;;;;5103814;27;61851;-77
2022/10/31 05:42:04;;;;;;;;;17.50;17.50;;;;;;;;5085396;27;61847;-77
2022/10/31 05:44:29;;;;;;;;;20.25;17.75;;;;;;;;5085617;27;61626;-77
2022/10/31 05:46:55;;;;;;;;;21.75;17.25;;;;;;;;5099889;27;62950;-77
2022/10/31 05:49:20;;;;;;;;;25.00;20.00;;;;;;;;5083070;28;61658;-77
2022/10/31 05:51:45;;;;;;;;;21.50;17.75;;;;;;;;5083490;27;61691;-77
2022/10/31 05:54:11;;;;;;;;;20.75;17.25;;;;;;;;5083787;27;61829;-77
2022/10/31 05:56:36;;;;;;;;;19.00;18.25;;;;;;;;5060520;28;61890;-77
2022/10/31 05:59:01;;;;;;;;;17.25;17.25;;;;;;;;5061512;28;61977;-77
2022/10/31 06:01:26;;;;;;;;;28.00;15.00;;;;;;;;5061222;28;61793;-78
2022/10/31 06:03:52;;;;;;;;;24.50;19.50;;;;;;;;5061759;28;61816;-77
2022/10/31 06:06:17;;;;;;;;;19.75;13.50;;;;;;;;5062282;28;62838;-77
2022/10/31 06:08:42;;;;;;;;;22.75;18.25;;;;;;;;5061510;28;61701;-77
2022/10/31 06:11:07;;;;;;;;;22.00;18.75;;;;;;;;5062349;28;61650;-77
2022/10/31 06:13:33;;;;;;;;;17.00;14.25;;;;;;;;5061579;28;61792;-77
2022/10/31 06:15:58;;;;;;;;;17.75;17.75;;;;;;;;5061625;28;62089;-77
2022/10/31 06:18:23;;;;;;;;;19.50;14.00;;;;;;;;5062301;28;61809;-78
2022/10/31 06:20:48;;;;;;;;;17.25;15.00;;;;;;;;5062874;28;62092;-77
2022/10/31 06:23:14;;;;;;;;;17.75;16.00;;;;;;;;5062708;28;61947;-78
2022/10/31 06:25:39;;;;;;;;;22.50;19.00;;;;;;;;5061741;28;62554;-77
2022/10/31 06:28:04;;;;;;;;;24.00;18.00;;;;;;;;5061037;28;61752;-77
2022/10/31 06:30:30;;;;;;;;;21.50;15.75;;;;;;;;5060927;28;61806;-78
2022/10/31 06:33:01;;;;;;;;;20.00;16.50;;;;;;;;5061433;28;61863;-77
2022/10/31 06:35:26;;;;;;;;;16.00;14.75;;;;;;;;5060167;28;61843;-78
2022/10/31 06:37:52;;;;;;;;;23.75;16.00;;;;;;;;5062267;28;61784;-77
2022/10/31 06:40:17;;;;;;;;;18.25;14.50;;;;;;;;5065259;28;61819;-77
2022/10/31 06:42:42;;;;;;;;;18.25;13.25;;;;;;;;5065877;28;61927;-77
2022/10/31 06:45:08;;;;;;;;;16.75;16.75;;;;;;;;5065083;28;62581;-77
2022/10/31 06:47:33;;;;;;;;;17.00;14.50;;;;;;;;5073911;27;61886;-77
2022/10/31 06:49:58;;;;;;;;;20.50;15.75;;;;;;;;5085808;27;61684;-77
2022/10/31 06:52:24;;;;;;;;;15.75;15.25;;;;;;;;5085255;27;62160;-77
2022/10/31 06:54:49;;;;;;;;;10.00;7.50;;;;;;;;5085589;28;61796;-77
2022/10/31 06:57:14;;;;;;;;;17.25;13.00;;;;;;;;5095573;27;61889;-77
2022/10/31 06:59:39;;;;;;;;;16.00;13.00;;;;;;;;5105893;27;61900;-77
2022/10/31 07:02:05;;;;;;;;;17.00;12.50;;;;;;;;5088343;27;62497;-77
2022/10/31 07:04:30;;;;;;;;;16.50;13.50;;;;;;;;5105842;27;61866;-77
2022/10/31 07:06:55;;;;;;;;;19.50;14.25;;;;;;;;5106237;27;61953;-77
2022/10/31 07:09:20;;;;;;;;;12.75;12.50;;;;;;;;5106751;27;62073;-77
2022/10/31 07:11:46;;;;;;;;;19.00;15.50;;;;;;;;5106291;27;61879;-77
2022/10/31 07:14:11;;;;;;;;;14.75;11.75;;;;;;;;5087074;27;63776;-77
2022/10/31 07:16:36;;;;;;;;;20.25;16.00;;;;;;;;5106120;27;61879;-78
2022/10/31 07:19:02;;;;;;;;;20.00;15.75;;;;;;;;5105703;27;61780;-77
2022/10/31 07:21:27;;;;;;;;;14.50;13.25;;;;;;;;5088026;27;61844;-77
2022/10/31 07:23:52;;;;;;;;;16.25;10.75;;;;;;;;5105618;27;61968;-77
2022/10/31 07:26:18;;;;;;;;;17.75;12.75;;;;;;;;5105719;27;61674;-78
2022/10/31 07:28:43;;;;;;;;;13.25;12.25;;;;;;;;5105536;27;61771;-79
2022/10/31 07:31:08;;;;;;;;;20.00;13.75;;;;;;;;5106248;27;61727;-77
2022/10/31 07:33:34;;;;;;;;;21.50;14.00;;;;;;;;5087140;27;63317;-77
2022/10/31 07:35:59;;;;;;;;;17.00;10.75;;;;;;;;5105739;27;62046;-77
2022/10/31 07:38:24;;;;;;;;;15.25;13.00;;;;;;;;5087773;27;61712;-78
2022/10/31 07:40:52;;;;;;;;;18.00;13.50;;;;;;;;5106237;27;61743;-77
2022/10/31 07:43:17;;;;;;;;;15.75;11.50;;;;;;;;5104342;27;61802;-77
2022/10/31 07:45:43;;;;;;;;;17.75;12.50;;;;;;;;5087154;27;61744;-77
2022/10/31 07:48:08;;;;;;;;;14.00;13.00;;;;;;;;5105780;27;61986;-77
2022/10/31 07:50:34;;;;;;;;;20.00;15.75;;;;;;;;5087167;27;62114;-78
2022/10/31 07:53:00;;;;;;;;;18.25;14.00;;;;;;;;5105092;27;61791;-77
2022/10/31 07:55:25;;;;;;;;;22.25;16.00;;;;;;;;5087336;27;61912;-77
2022/10/31 07:58:04;;;;;;;;;16.50;14.25;;;;;;;;5104682;27;61949;-77
2022/10/31 08:00:30;;;;;;;;;15.75;14.25;;;;;;;;5106034;27;61771;-77
2022/10/31 08:02:59;;;;;;;;;15.25;13.25;;;;;;;;5105174;27;63029;-77
2022/10/31 08:05:25;;;;;;;;;22.00;15.50;;;;;;;;5087131;27;61760;-77
2022/10/31 08:07:50;;;;;;;;;19.50;13.25;;;;;;;;5105549;27;61850;-77
2022/10/31 08:10:15;;;;;;;;;18.25;13.00;;;;;;;;5087377;27;61865;-77
2022/10/31 08:12:41;;;;;;;;;15.25;13.25;;;;;;;;5104513;27;61901;-77
2022/10/31 08:15:06;;;;;;;;;12.50;10.75;;;;;;;;5105285;27;61848;-77
2022/10/31 08:17:34;;;;;;;;;13.50;12.75;;;;;;;;5105471;27;61879;-78
2022/10/31 08:20:00;;;;;;;;;16.50;13.50;;;;;;;;5105349;27;61843;-77
2022/10/31 08:22:25;;;;;;;;;20.00;14.00;;;;;;;;5086373;27;61962;-77
2022/10/31 08:24:50;;;;;;;;;14.00;13.75;;;;;;;;5105503;27;61850;-77
2022/10/31 08:27:15;;;;;;;;;16.00;12.00;;;;;;;;5104335;27;61779;-77
2022/10/31 08:29:41;;;;;;;;;18.00;14.25;;;;;;;;5105420;27;61811;-77
2022/10/31 08:32:06;;;;;;;;;17.00;14.25;;;;;;;;5086314;27;63425;-77
2022/10/31 08:34:31;;;;;;;;;16.75;14.00;;;;;;;;5105274;27;61885;-77
2022/10/31 08:36:56;;;;;;;;;16.00;13.75;;;;;;;;5086700;27;61830;-77
2022/10/31 08:39:22;;;;;;;;;23.25;12.00;;;;;;;;5086415;27;61715;-77
2022/10/31 08:41:47;;;;;;;;;9.75;9.75;;;;;;;;5103441;27;62042;-77
2022/10/31 08:44:12;;;;;;;;;13.50;11.75;;;;;;;;5105174;27;61802;-77
2022/10/31 08:46:38;;;;;;;;;16.25;13.00;;;;;;;;5086562;27;61860;-78
2022/10/31 08:49:03;;;;;;;;;18.25;14.50;;;;;;;;5083921;28;62170;-77
2022/10/31 08:51:28;;;;;;;;;12.00;10.75;;;;;;;;5083901;28;62714;-77
2022/10/31 08:53:54;;;;;;;;;20.00;13.00;;;;;;;;5084580;27;62123;-77
2022/10/31 08:56:19;;;;;;;;;15.75;11.75;;;;;;;;5083331;28;61820;-78
2022/10/31 08:58:44;;;;;;;;;14.50;12.00;;;;;;;;5066111;28;61760;-77
2022/10/31 09:01:09;;;;;;;;;19.75;13.75;;;;;;;;5065212;28;61929;-78
2022/10/31 09:03:35;;;;;;;;;15.00;13.75;;;;;;;;5065319;28;61746;-77
2022/10/31 09:06:02;;;;;;;;;16.00;12.00;;;;;;;;5066048;28;61661;-77
2022/10/31 09:08:29;;;;;;;;;18.75;16.00;;;;;;;;5084390;28;61739;-77
2022/10/31 09:10:56;;;;;;;;;17.25;13.75;;;;;;;;5064758;28;63423;-77
2022/10/31 09:13:21;;;;;;;;;26.50;15.50;;;;;;;;5065490;28;61952;-77
2022/10/31 09:15:48;;;;;;;;;13.50;12.50;;;;;;;;5065909;27;61921;-77
2022/10/31 09:18:14;;;;;;;;;22.00;13.75;;;;;;;;5066197;28;62168;-77
2022/10/31 09:20:40;;;;;;;;;19.00;14.00;;;;;;;;5083057;28;62847;-77
2022/10/31 09:23:10;;;;;;;;;17.50;16.25;;;;;;;;5083747;28;61828;-78
2022/10/31 09:25:35;;;;;;;;;13.75;12.25;;;;;;;;5083536;27;61890;-77
2022/10/31 09:28:01;;;;;;;;;18.25;15.50;;;;;;;;5065864;28;62213;-78
2022/10/31 09:30:30;;;;;;;;;22.00;16.25;;;;;;;;5083253;27;61975;-77
2022/10/31 09:32:59;;;;;;;;;17.00;12.75;;;;;;;;5083406;28;61819;-78
2022/10/31 09:35:25;;;;;;;;;20.50;13.75;;;;;;;;5083042;27;61756;-78
2022/10/31 09:37:56;;;;;;;;;17.75;14.50;;;;;;;;5083423;28;61833;-77
2022/10/31 09:40:24;;;;;;;;;15.75;12.50;;;;;;;;5064197;28;62027;-77
2022/10/31 09:42:55;;;;;;;;;18.00;13.25;;;;;;;;5083280;27;61934;-77
2022/10/31 09:45:26;;;;;;;;;19.50;15.25;;;;;;;;5083411;28;61994;-77
2022/10/31 09:47:54;;;;;;;;;22.25;16.75;;;;;;;;5075363;27;61706;-78
2022/10/31 09:50:26;;;;;;;;;14.50;13.00;;;;;;;;5102715;27;62743;-77
2022/10/31 09:52:59;;;;;;;;;14.50;13.50;;;;;;;;5103836;27;61890;-77
2022/10/31 09:55:31;;;;;;;;;16.75;15.25;;;;;;;;5085147;27;61854;-78
2022/10/31 09:57:58;;;;;;;;;14.25;12.25;;;;;;;;5103388;27;62012;-78
2022/10/31 10:00:23;;;;;;;;;16.50;15.50;;;;;;;;5084659;27;61834;-78
2022/10/31 10:02:51;;;;;;;;;16.50;15.00;;;;;;;;5103774;27;61893;-78
2022/10/31 10:05:21;;;;;;;;;13.00;11.00;;;;;;;;5103975;27;61906;-78
2022/10/31 10:07:55;;;;;;;;;18.50;15.00;;;;;;;;5084726;27;61977;-78
2022/10/31 10:10:26;;;;;;;;;14.75;13.50;;;;;;;;5103219;27;62598;-77
2022/10/31 10:13:10;;;;;;;;;18.00;12.00;;;;;;;;5084561;27;61704;-77
2022/10/31 10:15:41;;;;;;;;;14.25;10.25;;;;;;;;5084682;27;61999;-78
2022/10/31 10:18:13;;;;;;;;;16.50;10.00;;;;;;;;5103758;27;62010;-77
2022/10/31 10:20:41;;;;;;;;;16.00;12.50;;;;;;;;5102279;27;61981;-77
2022/10/31 10:23:15;;;;;;;;;11.75;10.75;;;;;;;;5084502;27;62011;-78
2022/10/31 10:25:44;;;;;;;;;13.75;12.50;;;;;;;;5084801;27;62065;-78
2022/10/31 10:28:12;;;;;;;;;19.50;12.25;;;;;;;;5103259;27;61869;-78
2022/10/31 10:30:46;;;;;;;;;17.75;12.25;;;;;;;;5102566;27;62860;-77
2022/10/31 10:33:24;;;;;;;;;11.50;10.50;;;;;;;;5084719;27;61800;-78
2022/10/31 10:35:55;;;;;;;;;13.25;11.75;;;;;;;;5084649;27;61731;-78
2022/10/31 10:38:36;;;;;;;;;13.25;11.75;;;;;;;;5084746;27;61868;-78
2022/10/31 10:41:04;;;;;;;;;14.25;9.50;;;;;;;;5102553;27;63310;-78
2022/10/31 10:43:34;;;;;;;;;13.50;11.00;;;;;;;;5084417;27;61790;-78
2022/10/31 10:49:05;;;;;;;;;17.50;12.75;;;;;;;;5102635;27;61695;-78
2022/10/31 10:51:46;;;;;;;;;12.75;10.75;;;;;;;;5102216;27;63086;-78
2022/10/31 10:54:30;;;;;;;;;14.75;12.75;;;;;;;;5103105;27;61793;-78
2022/10/31 10:57:11;;;;;;;;;13.50;12.00;;;;;;;;5102508;27;61894;-78
2022/10/31 10:59:37;;;;;;;;;10.25;9.00;;;;;;;;5085008;27;61938;-77
2022/10/31 11:02:03;;;;;;;;;19.50;13.75;;;;;;;;5102549;27;61853;-78
2022/10/31 11:04:33;;;;;;;;;15.75;12.25;;;;;;;;5084692;27;62491;-78
2022/10/31 11:07:06;;;;;;;;;11.75;9.75;;;;;;;;5102365;27;61786;-78
2022/10/31 11:09:31;;;;;;;;;10.50;9.75;;;;;;;;5084868;27;61697;-77
2022/10/31 11:11:57;;;;;;;;;14.00;12.50;;;;;;;;5083477;27;62977;-78
2022/10/31 11:14:23;;;;;;;;;13.50;13.50;;;;;;;;5084590;27;61735;-78
2022/10/31 11:16:54;;;;;;;;;16.25;12.75;;;;;;;;5102895;27;61858;-78
2022/10/31 11:19:26;;;;;;;;;13.00;11.25;;;;;;;;5084066;27;61891;-78
2022/10/31 11:21:51;;;;;;;;;13.00;11.00;;;;;;;;5101787;27;61746;-78
2022/10/31 11:24:18;;;;;;;;;14.50;11.50;;;;;;;;5102778;27;61881;-78
2022/10/31 11:26:44;;;;;;;;;16.25;8.50;;;;;;;;5105471;27;61993;-78
2022/10/31 11:29:13;;;;;;;;;11.00;8.50;;;;;;;;5106570;27;61951;-78
2022/10/31 11:31:39;;;;;;;;;10.75;6.75;;;;;;;;5105394;27;61621;-78
2022/10/31 11:34:16;;;;;;;;;11.50;9.00;;;;;;;;5087798;27;61732;-77
2022/10/31 11:36:43;;;;;;;;;14.50;9.75;;;;;;;;5105558;27;61994;-78
2022/10/31 11:39:28;;;;;;;;;12.00;9.00;;;;;;;;5106275;27;61724;-78
2022/10/31 11:41:55;;;;;;;;;10.00;9.00;;;;;;;;5085595;27;65037;-77
2022/10/31 11:44:28;;;;;;;;;12.75;10.25;;;;;;;;5105461;27;61699;-78
2022/10/31 11:46:58;;;;;;;;;9.50;7.50;;;;;;;;5105504;27;61924;-78
2022/10/31 11:49:38;;;;;;;;;11.50;9.00;;;;;;;;5086714;27;62193;-78
2022/10/31 11:52:14;;;;;;;;;13.00;9.25;;;;;;;;5086706;27;63630;-78
2022/10/31 11:54:49;;;;;;;;;9.67;7.33;;;;;;;;5105668;27;61851;-78
2022/10/31 11:57:31;;;;;;;;;12.50;9.00;;;;;;;;5105647;27;62120;-78
2022/10/31 11:59:58;;;;;;;;;14.25;8.75;;;;;;;;5087434;27;61933;-78
2022/10/31 12:02:24;;;;;;;;;8.50;8.25;;;;;;;;5105270;27;61938;-78
2022/10/31 12:05:10;;;;;;;;;13.50;9.25;;;;;;;;5086952;27;61938;-78
2022/10/31 12:07:36;;;;;;;;;8.00;8.00;;;;;;;;5105499;27;61886;-78
2022/10/31 12:10:01;;;;;;;;;10.50;7.75;;;;;;;;5105797;27;61799;-78
2022/10/31 12:12:26;;;;;;;;;8.00;6.67;;;;;;;;5104748;27;61834;-78
2022/10/31 12:15:10;;;;;;;;;10.33;6.67;;;;;;;;5105676;27;61849;-78
2022/10/31 12:17:49;;;;;;;;;10.00;7.67;;;;;;;;5086942;27;61825;-78
2022/10/31 12:20:32;;;;;;;;;11.00;6.00;;;;;;;;5104840;27;61959;-78
2022/10/31 12:23:17;;;;;;;;;11.00;6.67;;;;;;;;5104756;27;62877;-78
2022/10/31 12:26:01;;;;;;;;;11.33;8.00;;;;;;;;5105407;27;61906;-78
2022/10/31 12:28:50;;;;;;;;;9.50;7.00;;;;;;;;5086775;27;61843;-78
2022/10/31 12:31:34;;;;;;;;;10.33;9.00;;;;;;;;5078854;27;61673;-78
2022/10/31 12:34:05;;;;;;;;;9.00;7.00;;;;;;;;5103805;27;61733;-78
2022/10/31 12:36:30;;;;;;;;;10.00;7.00;;;;;;;;5104215;27;61883;-78
2022/10/31 12:38:55;;;;;;;;;9.00;9.00;;;;;;;;5105190;27;61791;-78
2022/10/31 12:41:36;;;;;;;;;10.33;6.33;;;;;;;;5105055;27;61752;-78
2022/10/31 12:44:04;;;;;;;;;8.00;7.00;;;;;;;;5086132;27;63820;-78
2022/10/31 12:46:55;;;;;;;;;8.67;7.00;;;;;;;;5104848;27;62127;-78
2022/10/31 12:49:29;;;;;;;;;7.67;6.67;;;;;;;;5065153;27;61819;-78
2022/10/31 12:51:57;;;;;;;;;6.33;6.33;;;;;;;;5084581;27;62137;-78
2022/10/31 12:54:28;;;;;;;;;7.00;6.00;;;;;;;;5084137;27;62868;-78
2022/10/31 12:57:00;;;;;;;;;7.33;6.67;;;;;;;;5065517;28;62034;-78
2022/10/31 12:59:28;;;;;;;;;8.00;6.33;;;;;;;;5065968;27;61768;-78
2022/10/31 13:01:53;;;;;;;;;8.67;7.33;;;;;;;;5083874;28;61703;-78
2022/10/31 13:04:42;;;;;;;;;6.33;6.00;;;;;;;;5083858;28;61681;-78
2022/10/31 13:07:16;;;;;;;;;9.33;7.00;;;;;;;;5054942;28;62012;-78
2022/10/31 13:09:48;;;;;;;;;8.00;7.00;;;;;;;;5084372;28;61788;-78
2022/10/31 13:12:16;;;;;;;;;10.00;5.67;;;;;;;;5065705;28;61756;-78
2022/10/31 13:14:53;;;;;;;;;9.33;7.67;;;;;;;;5083691;27;63177;-78
2022/10/31 13:17:24;;;;;;;;;11.00;8.00;;;;;;;;5065184;27;61829;-78
2022/10/31 13:19:51;;;;;;;;;10.00;7.00;;;;;;;;5065394;27;61708;-78
2022/10/31 13:22:19;;;;;;;;;7.00;6.00;;;;;;;;5083831;28;61898;-78
2022/10/31 13:24:52;;;;;;;;;6.33;5.67;;;;;;;;5083428;28;61958;-78
2022/10/31 13:27:23;;;;;;;;;6.67;6.67;;;;;;;;5083435;27;62001;-78
2022/10/31 13:29:51;;;;;;;;;6.67;6.00;;;;;;;;5083735;27;61615;-78
2022/10/31 13:32:16;;;;;;;;;7.67;5.00;;;;;;;;5083553;28;61791;-78
2022/10/31 13:34:47;;;;;;;;;6.00;6.00;;;;;;;;5083459;27;62390;-78
2022/10/31 13:37:28;;;;;;;;;9.33;8.00;;;;;;;;5083690;27;62018;-78
2022/10/31 13:40:05;;;;;;;;;10.00;7.00;;;;;;;;5083815;27;62044;-78
2022/10/31 13:42:33;;;;;;;;;7.00;6.00;;;;;;;;5083502;27;61760;-78
2022/10/31 13:45:17;;;;;;;;;11.00;7.00;;;;;;;;5064589;28;62882;-78
2022/10/31 13:47:43;;;;;;;;;8.33;6.33;;;;;;;;5092399;27;61795;-78
2022/10/31 13:50:17;;;;;;;;;5.67;5.67;;;;;;;;5085285;27;61771;-78
2022/10/31 13:52:42;;;;;;;;;8.00;8.00;;;;;;;;5104225;27;61709;-78
2022/10/31 13:55:28;;;;;;;;;12.00;9.33;;;;;;;;5084590;27;61960;-78
2022/10/31 13:57:53;;;;;;;;;8.33;5.67;;;;;;;;5084829;27;61841;-78
2022/10/31 14:00:23;;;;;;;;;9.33;7.00;;;;;;;;5084970;27;61823;-79
2022/10/31 14:02:50;;;;;;;;;8.33;7.00;;;;;;;;5085981;27;62078;-78
2022/10/31 14:05:16;;;;;;;;;13.67;8.67;;;;;;;;5103112;27;61690;-78
2022/10/31 14:07:43;;;;;;;;;9.33;6.33;;;;;;;;5103629;27;61893;-78
2022/10/31 14:10:25;;;;;;;;;6.33;6.33;;;;;;;;5103889;27;61790;-78
2022/10/31 14:12:51;;;;;;;;;7.00;6.67;;;;;;;;5085231;27;62096;-78
2022/10/31 14:15:18;;;;;;;;;6.00;5.00;;;;;;;;5102453;27;61728;-78
2022/10/31 14:17:46;;;;;;;;;6.00;5.00;;;;;;;;5084869;27;61938;-78
2022/10/31 14:20:11;;;;;;;;;7.00;6.67;;;;;;;;5103401;27;62010;-78
2022/10/31 14:22:38;;;;;;;;;8.67;8.00;;;;;;;;5103858;27;61767;-78
2022/10/31 14:25:23;;;;;;;;;15.00;6.00;;;;;;;;5084570;27;62171;-78
2022/10/31 14:27:48;;;;;;;;;7.67;7.67;;;;;;;;5102918;27;61956;-78
2022/10/31 14:30:15;;;;;;;;;12.33;7.33;;;;;;;;5102935;27;61891;-78
2022/10/31 14:32:42;;;;;;;;;9.33;8.33;;;;;;;;5085410;27;61842;-78
2022/10/31 14:35:12;;;;;;;;;8.00;8.00;;;;;;;;5102852;27;61827;-78